createdAt,value
2023-02-18T00:01:04.810Z,2.10
2023-02-18T00:03:32.945Z,2.70
2023-02-18T00:06:00.997Z,2.43
2023-02-18T00:08:29.241Z,2.67
2023-02-18T00:10:58.847Z,2.73
2023-02-18T00:13:26.939Z,2.30
2023-02-18T00:15:55.086Z,2.67
2023-02-18T00:18:23.143Z,2.20
2023-02-18T00:20:51.295Z,2.50
2023-02-18T00:23:19.645Z,2.90
2023-02-18T00:25:47.579Z,2.60
2023-02-18T00:28:16.871Z,2.90
2023-02-18T00:30:45.379Z,2.70
2023-02-18T00:33:13.401Z,2.80
2023-02-18T00:35:41.505Z,2.53
2023-02-18T00:38:09.687Z,2.77
2023-02-18T00:40:39.282Z,2.90
2023-02-18T00:43:07.653Z,3.33
2023-02-18T00:45:37.300Z,2.57
2023-02-18T00:48:06.206Z,4.10
2023-02-18T00:50:34.899Z,2.90
2023-02-18T00:53:03.082Z,3.13
2023-02-18T00:55:31.171Z,3.10
2023-02-18T00:57:59.309Z,2.90
2023-02-18T01:00:27.495Z,2.90
2023-02-18T01:02:57.101Z,3.10
2023-02-18T01:05:25.293Z,3.87
2023-02-18T01:07:53.371Z,3.00
2023-02-18T01:10:21.621Z,3.20
2023-02-18T01:12:49.795Z,3.03
2023-02-18T01:15:18.790Z,3.00
2023-02-18T01:17:46.826Z,2.50
2023-02-18T01:20:16.907Z,2.70
2023-02-18T01:22:45.256Z,3.00
2023-02-18T01:25:14.053Z,3.00
2023-02-18T01:27:42.560Z,2.87
2023-02-18T01:30:15.643Z,3.10
2023-02-18T01:32:43.789Z,3.30
2023-02-18T01:35:13.871Z,2.47
2023-02-18T01:37:43.448Z,4.43
2023-02-18T01:40:13.947Z,3.03
2023-02-18T01:42:42.415Z,2.67
2023-02-18T01:45:41.618Z,2.80
2023-02-18T01:48:13.971Z,2.97
2023-02-18T01:50:45.025Z,2.80
2023-02-18T01:53:19.254Z,2.67
2023-02-18T02:02:31.099Z,2.63
2023-02-18T02:04:59.240Z,2.57
2023-02-18T02:07:29.109Z,2.50
2023-02-18T02:10:00.350Z,3.07
2023-02-18T02:12:50.222Z,2.43
2023-02-18T02:15:35.521Z,2.33
2023-02-18T02:18:22.937Z,2.63
2023-02-18T02:21:26.794Z,2.40
2023-02-18T02:24:25.321Z,2.43
2023-02-18T02:27:14.258Z,2.10
2023-02-18T02:30:23.410Z,2.30
2023-02-18T02:33:20.572Z,2.40
2023-02-18T02:35:56.719Z,2.50
2023-02-18T02:38:30.747Z,2.40
2023-02-18T02:41:06.980Z,2.37
2023-02-18T02:43:42.981Z,2.60
2023-02-18T02:46:15.822Z,2.47
2023-02-18T02:48:47.692Z,2.83
2023-02-18T02:51:22.864Z,2.50
2023-02-18T02:53:50.941Z,2.30
2023-02-18T02:56:20.609Z,2.57
2023-02-18T02:59:01.052Z,2.47
2023-02-18T03:01:38.012Z,2.03
2023-02-18T03:04:25.237Z,2.30
2023-02-18T03:07:16.000Z,2.10
2023-02-18T03:10:02.614Z,2.03
2023-02-18T03:12:37.727Z,1.67
2023-02-18T03:15:13.522Z,1.90
2023-02-18T03:17:47.287Z,2.10
2023-02-18T03:20:23.499Z,1.73
2023-02-18T03:22:54.655Z,1.50
2023-02-18T03:25:23.370Z,1.90
2023-02-18T03:27:55.197Z,1.70
2023-02-18T03:30:29.819Z,1.70
2023-02-18T03:33:04.232Z,1.70
2023-02-18T03:35:32.821Z,1.80
2023-02-18T03:38:08.071Z,1.20
2023-02-18T03:40:36.185Z,1.43
2023-02-18T03:43:04.307Z,1.57
2023-02-18T03:45:32.345Z,1.40
2023-02-18T03:48:00.343Z,1.30
2023-02-18T03:50:28.465Z,1.30
2023-02-18T03:52:56.805Z,2.10
2023-02-18T03:55:26.352Z,1.80
2023-02-18T03:57:54.395Z,1.97
2023-02-18T04:00:23.017Z,1.50
2023-02-18T04:02:51.068Z,1.70
2023-02-18T04:05:19.383Z,1.60
2023-02-18T04:07:47.537Z,1.43
2023-02-18T04:10:15.548Z,1.60
2023-02-18T04:12:45.058Z,2.50
2023-02-18T04:15:13.940Z,2.67
2023-02-18T04:17:42.119Z,2.50
2023-02-18T04:20:11.051Z,2.20
2023-02-18T04:22:39.048Z,2.60
2023-02-18T04:25:07.890Z,2.10
2023-02-18T04:27:36.092Z,2.53
2023-02-18T04:30:07.287Z,2.50
2023-02-18T04:32:35.275Z,2.30
2023-02-18T04:35:03.474Z,2.50
2023-02-18T04:37:31.891Z,2.40
2023-02-18T04:39:59.950Z,2.07
2023-02-18T04:42:28.159Z,2.70
2023-02-18T04:44:56.155Z,2.70
2023-02-18T04:47:25.828Z,2.60
2023-02-18T04:49:54.010Z,2.20
2023-02-18T04:52:22.196Z,3.13
2023-02-18T04:54:50.360Z,2.73
2023-02-18T04:57:18.626Z,2.67
2023-02-18T04:59:46.613Z,2.73
2023-02-18T05:02:14.596Z,3.17
2023-02-18T05:04:44.055Z,2.67
2023-02-18T05:07:12.036Z,2.80
2023-02-18T05:09:40.420Z,2.40
2023-02-18T05:12:09.136Z,2.77
2023-02-18T05:14:37.180Z,2.87
2023-02-18T05:17:05.157Z,2.40
2023-02-18T05:19:33.345Z,2.40
2023-02-18T05:22:02.687Z,3.43
2023-02-18T05:24:30.735Z,2.67
2023-02-18T05:26:58.845Z,2.70
2023-02-18T05:29:26.795Z,2.40
2023-02-18T05:31:54.925Z,2.00
2023-02-18T05:34:22.922Z,2.50
2023-02-18T05:36:50.869Z,2.90
2023-02-18T05:39:20.119Z,2.50
2023-02-18T05:41:48.086Z,2.60
2023-02-18T05:44:31.559Z,2.30
2023-02-18T05:47:00.660Z,2.90
2023-02-18T05:49:29.064Z,2.53
2023-02-18T05:51:57.174Z,2.23
2023-02-18T05:54:26.967Z,2.77
2023-02-18T05:56:55.167Z,2.50
2023-02-18T05:59:23.152Z,3.20
2023-02-18T06:01:51.617Z,2.90
2023-02-18T06:04:19.566Z,2.83
2023-02-18T06:06:47.800Z,3.57
2023-02-18T06:09:15.971Z,3.00
2023-02-18T06:11:45.303Z,3.37
2023-02-18T06:14:13.263Z,3.23
2023-02-18T06:16:41.264Z,3.13
2023-02-18T06:19:09.289Z,3.33
2023-02-18T06:21:37.220Z,3.93
2023-02-18T06:24:05.537Z,4.03
2023-02-18T06:26:34.238Z,3.57
2023-02-18T06:29:03.547Z,3.20
2023-02-18T06:31:31.556Z,2.87
2023-02-18T06:33:59.561Z,3.77
2023-02-18T06:36:27.541Z,2.70
2023-02-18T06:38:57.451Z,3.07
2023-02-18T06:41:25.494Z,3.47
2023-02-18T06:43:53.820Z,3.93
2023-02-18T06:46:23.532Z,3.43
2023-02-18T06:48:51.580Z,3.43
2023-02-18T06:51:19.645Z,3.37
2023-02-18T06:53:47.623Z,4.07
2023-02-18T06:56:15.724Z,3.30
2023-02-18T06:58:43.862Z,4.67
2023-02-18T07:01:12.041Z,4.30
2023-02-18T07:03:41.831Z,4.53
2023-02-18T07:06:10.557Z,4.90
2023-02-18T07:08:39.238Z,5.40
2023-02-18T07:11:08.395Z,4.20
2023-02-18T07:13:36.543Z,5.40
2023-02-18T07:16:05.051Z,4.50
2023-02-18T07:18:33.019Z,5.60
2023-02-18T07:21:02.514Z,5.10
2023-02-18T07:23:30.572Z,5.60
2023-02-18T07:26:06.318Z,5.37
2023-02-18T07:28:34.695Z,5.50
2023-02-18T07:31:02.967Z,6.43
2023-02-18T07:33:31.249Z,6.00
2023-02-18T07:36:01.777Z,5.80
2023-02-18T07:38:31.950Z,5.50
2023-02-18T07:41:00.304Z,5.40
2023-02-18T07:43:28.568Z,6.80
2023-02-18T07:45:56.588Z,5.60
2023-02-18T07:48:24.692Z,5.83
2023-02-18T07:50:52.765Z,5.93
2023-02-18T07:53:20.756Z,6.17
2023-02-18T07:55:52.979Z,6.33
2023-02-18T07:58:22.834Z,5.90
2023-02-18T08:00:51.641Z,5.27
2023-02-18T08:03:20.982Z,5.80
2023-02-18T08:05:49.931Z,6.03
2023-02-18T08:08:20.816Z,5.07
2023-02-18T08:10:50.979Z,6.17
2023-02-18T08:13:19.146Z,4.90
2023-02-18T08:15:47.292Z,5.40
2023-02-18T08:18:18.591Z,5.00
2023-02-18T08:20:47.325Z,6.10
2023-02-18T08:23:16.476Z,5.40
2023-02-18T08:25:49.790Z,4.63
2023-02-18T08:28:21.439Z,4.80
2023-02-18T08:30:51.369Z,3.80
2023-02-18T08:33:20.798Z,4.67
2023-02-18T08:35:50.814Z,4.40
2023-02-18T08:38:19.270Z,4.07
2023-02-18T08:40:47.531Z,4.63
2023-02-18T08:43:16.858Z,4.17
2023-02-18T08:45:46.487Z,3.70
2023-02-18T08:48:20.572Z,4.50
2023-02-18T08:50:49.211Z,4.10
2023-02-18T08:53:17.440Z,4.53
2023-02-18T08:55:45.565Z,4.27
2023-02-18T08:58:14.562Z,3.87
2023-02-18T09:00:43.901Z,4.10
2023-02-18T09:03:15.222Z,4.20
2023-02-18T09:05:43.366Z,3.50
2023-02-18T09:08:11.493Z,3.57
2023-02-18T09:10:39.741Z,3.53
2023-02-18T09:13:07.779Z,3.10
2023-02-18T09:15:35.755Z,3.20
2023-02-18T09:18:03.767Z,4.03
2023-02-18T09:20:33.093Z,3.97
2023-02-18T09:23:03.779Z,3.03
2023-02-18T09:25:31.850Z,3.33
2023-02-18T09:27:59.797Z,2.60
2023-02-18T09:30:27.752Z,3.10
2023-02-18T09:32:55.771Z,3.10
2023-02-18T09:35:24.031Z,2.97
2023-02-18T09:37:53.378Z,2.97
2023-02-18T09:40:27.861Z,3.13
2023-02-18T09:42:58.259Z,3.50
2023-02-18T09:45:27.170Z,2.57
2023-02-18T09:47:55.784Z,2.57
2023-02-18T09:50:27.302Z,3.13
2023-02-18T09:52:59.248Z,2.50
2023-02-18T09:55:33.010Z,2.93
2023-02-18T09:58:03.521Z,2.83
2023-02-18T10:00:36.379Z,2.43
2023-02-18T10:03:15.715Z,2.73
2023-02-18T10:05:52.802Z,2.47
2023-02-18T10:08:26.856Z,2.30
2023-02-18T10:10:55.201Z,2.10
2023-02-18T10:13:25.601Z,2.17
2023-02-18T10:15:56.680Z,2.20
2023-02-18T10:21:07.903Z,3.70
2023-02-18T10:23:55.036Z,7.20
2023-02-18T10:26:24.744Z,3.90
2023-02-18T10:28:53.025Z,2.33
2023-02-18T10:31:26.987Z,2.80
2023-02-18T10:34:01.479Z,2.50
2023-02-18T10:36:36.709Z,2.50
2023-02-18T10:39:22.319Z,2.90
2023-02-18T10:42:02.442Z,3.00
2023-02-18T10:44:43.632Z,3.00
2023-02-18T10:47:23.213Z,2.53
2023-02-18T10:49:59.808Z,3.20
2023-02-18T10:52:30.395Z,3.30
2023-02-18T10:55:05.537Z,2.50
2023-02-18T10:57:34.806Z,3.70
2023-02-18T11:00:12.145Z,3.63
2023-02-18T11:02:41.273Z,4.10
2023-02-18T11:05:27.763Z,2.53
2023-02-18T11:07:58.959Z,2.90
2023-02-18T11:10:32.394Z,2.73
2023-02-18T11:13:04.089Z,3.10
2023-02-18T11:15:32.333Z,2.57
2023-02-18T11:18:49.905Z,2.30
2023-02-18T11:22:06.729Z,2.60
2023-02-18T11:24:39.849Z,4.00
2023-02-18T11:27:14.545Z,3.07
2023-02-18T11:29:43.176Z,2.87
2023-02-18T11:32:21.229Z,2.97
2023-02-18T11:34:52.016Z,2.73
2023-02-18T11:37:22.508Z,4.10
2023-02-18T11:39:54.292Z,2.80
2023-02-18T11:42:27.470Z,2.00
2023-02-18T11:44:57.331Z,2.50
2023-02-18T11:47:28.680Z,2.60
2023-02-18T11:50:17.643Z,3.20
2023-02-18T11:52:47.272Z,2.70
2023-02-18T11:55:20.990Z,2.33
2023-02-18T11:57:56.139Z,2.40
2023-02-18T12:00:38.149Z,2.50
2023-02-18T12:03:14.373Z,2.67
2023-02-18T12:05:47.746Z,2.83
2023-02-18T12:08:21.636Z,2.60
2023-02-18T12:10:53.002Z,2.77
2023-02-18T12:13:27.753Z,3.40
2023-02-18T12:16:05.101Z,3.03
2023-02-18T12:18:50.466Z,2.83
2023-02-18T12:21:38.149Z,2.70
2023-02-18T12:24:18.252Z,2.80
2023-02-18T12:26:57.315Z,2.33
2023-02-18T12:29:45.701Z,2.90
2023-02-18T12:32:31.750Z,2.70
2023-02-18T12:35:16.169Z,2.73
2023-02-18T12:38:15.476Z,2.47
2023-02-18T12:41:04.834Z,2.10
2023-02-18T12:43:43.710Z,2.80
2023-02-18T12:46:41.706Z,2.70
2023-02-18T12:49:35.963Z,2.10
2023-02-18T12:52:17.056Z,2.23
2023-02-18T12:55:00.220Z,1.80
2023-02-18T12:57:39.091Z,2.53
2023-02-18T13:00:40.499Z,1.97
2023-02-18T13:03:51.598Z,2.40
2023-02-18T13:06:32.776Z,2.10
2023-02-18T13:09:08.369Z,1.73
2023-02-18T13:11:47.852Z,2.13
2023-02-18T13:14:19.912Z,2.70
2023-02-18T13:16:52.122Z,2.37
2023-02-18T13:19:26.216Z,2.67
2023-02-18T13:21:59.598Z,2.30
2023-02-18T13:24:34.149Z,2.17
2023-02-18T13:27:14.924Z,2.80
2023-02-18T13:29:52.743Z,2.10
2023-02-18T13:32:27.567Z,2.30
2023-02-18T13:35:05.840Z,3.10
2023-02-18T13:37:41.582Z,3.13
2023-02-18T13:40:19.610Z,2.17
2023-02-18T13:42:48.420Z,2.47
2023-02-18T13:45:30.532Z,2.27
2023-02-18T13:47:59.656Z,1.80
2023-02-18T13:50:44.802Z,2.60
2023-02-18T13:53:24.709Z,2.20
2023-02-18T13:56:04.046Z,2.40
2023-02-18T13:58:38.317Z,2.03
2023-02-18T14:01:14.751Z,2.43
2023-02-18T14:03:55.795Z,2.47
2023-02-18T14:06:27.376Z,3.20
2023-02-18T14:09:20.087Z,2.00
2023-02-18T14:11:49.962Z,2.70
2023-02-18T14:14:37.581Z,2.73
2023-02-18T14:17:30.480Z,2.33
2023-02-18T14:20:38.066Z,2.30
2023-02-18T14:23:32.968Z,2.43
2023-02-18T14:26:07.636Z,2.97
2023-02-18T14:28:46.016Z,2.20
2023-02-18T14:31:42.385Z,2.77
2023-02-18T14:34:33.559Z,2.63
2023-02-18T14:37:30.974Z,2.37
2023-02-18T14:40:16.906Z,2.70
2023-02-18T14:42:50.590Z,2.47
2023-02-18T14:45:34.085Z,2.93
2023-02-18T14:48:26.591Z,2.53
2023-02-18T14:50:56.604Z,2.40
2023-02-18T14:53:27.256Z,2.43
2023-02-18T14:56:00.396Z,2.60
2023-02-18T14:58:36.387Z,3.03
2023-02-18T15:01:08.725Z,2.90
2023-02-18T15:03:36.658Z,3.03
2023-02-18T15:06:05.941Z,2.93
2023-02-18T15:08:40.160Z,2.37
2023-02-18T15:11:09.902Z,3.10
2023-02-18T15:13:44.230Z,3.90
2023-02-18T15:16:17.502Z,2.90
2023-02-18T15:18:50.451Z,2.90
2023-02-18T15:21:22.704Z,3.20
2023-02-18T15:23:51.759Z,3.37
2023-02-18T15:26:22.395Z,2.70
2023-02-18T15:28:56.465Z,3.70
2023-02-18T15:31:27.912Z,2.70
2023-02-18T15:33:55.893Z,2.90
2023-02-18T15:36:26.716Z,2.70
2023-02-18T15:38:56.061Z,2.73
2023-02-18T15:41:25.666Z,2.63
2023-02-18T15:43:55.668Z,3.30
2023-02-18T15:46:26.427Z,2.70
2023-02-18T15:48:57.062Z,3.90
2023-02-18T15:51:30.660Z,3.10
2023-02-18T15:54:01.658Z,3.03
2023-02-18T15:56:36.959Z,3.23
2023-02-18T15:59:15.858Z,3.13
2023-02-18T16:01:44.073Z,2.67
2023-02-18T16:04:16.140Z,2.87
2023-02-18T16:06:48.608Z,3.50
2023-02-18T16:09:20.741Z,3.00
2023-02-18T16:11:54.561Z,3.00
2023-02-18T16:14:29.714Z,3.40
2023-02-18T16:17:09.570Z,3.50
2023-02-18T16:20:01.640Z,3.30
2023-02-18T16:22:36.587Z,3.30
2023-02-18T16:25:15.511Z,3.47
2023-02-18T16:27:52.338Z,2.73
2023-02-18T16:30:22.692Z,3.60
2023-02-18T16:32:52.138Z,3.30
2023-02-18T16:35:20.575Z,3.10
2023-02-18T16:37:50.337Z,3.07
2023-02-18T16:40:31.067Z,3.87
2023-02-18T16:43:02.806Z,3.07
2023-02-18T16:45:36.801Z,3.27
2023-02-18T16:48:05.843Z,3.03
2023-02-18T16:50:35.449Z,3.50
2023-02-18T16:53:03.634Z,3.10
2023-02-18T16:55:32.053Z,3.60
2023-02-18T16:58:01.476Z,3.37
2023-02-18T17:00:29.345Z,3.53
2023-02-18T17:03:00.317Z,3.80
2023-02-18T17:05:30.869Z,4.67
2023-02-18T17:08:05.892Z,4.20
2023-02-18T17:10:35.917Z,4.90
2023-02-18T17:13:05.386Z,3.73
2023-02-18T17:15:36.014Z,4.27
2023-02-18T17:18:04.841Z,3.90
2023-02-18T17:20:34.437Z,4.30
2023-02-18T17:23:02.577Z,4.63
2023-02-18T17:25:33.109Z,4.37
2023-02-18T17:28:01.956Z,5.00
2023-02-18T17:30:32.959Z,4.97
2023-02-18T17:33:03.238Z,3.47
2023-02-18T17:35:31.633Z,4.67
2023-02-18T17:38:00.128Z,3.97
2023-02-18T17:40:29.784Z,4.80
2023-02-18T17:42:58.087Z,3.80
2023-02-18T17:45:32.163Z,3.07
2023-02-18T17:48:03.179Z,6.00
2023-02-18T17:50:32.329Z,4.87
2023-02-18T17:53:00.579Z,4.07
2023-02-18T17:55:31.752Z,4.20
2023-02-18T17:58:00.522Z,4.93
2023-02-18T18:00:31.543Z,3.90
2023-02-18T18:03:02.304Z,4.13
2023-02-18T18:05:34.466Z,3.63
2023-02-18T18:08:04.130Z,4.53
2023-02-18T18:10:35.157Z,4.00
2023-02-18T18:13:05.044Z,4.60
2023-02-18T18:15:35.601Z,4.57
2023-02-18T18:18:14.849Z,3.90
2023-02-18T18:20:45.467Z,4.47
2023-02-18T18:23:15.345Z,3.93
2023-02-18T18:25:45.088Z,4.70
2023-02-18T18:28:13.578Z,4.70
2023-02-18T18:30:43.436Z,4.10
2023-02-18T18:33:18.647Z,4.83
2023-02-18T18:35:49.890Z,3.93
2023-02-18T18:38:18.563Z,4.77
2023-02-18T18:40:47.504Z,3.97
2023-02-18T18:43:19.669Z,4.47
2023-02-18T18:45:48.401Z,3.97
2023-02-18T18:48:20.180Z,3.93
2023-02-18T18:50:49.512Z,4.03
2023-02-18T18:53:19.980Z,3.73
2023-02-18T18:55:49.150Z,4.20
2023-02-18T18:58:20.984Z,3.83
2023-02-18T19:00:51.605Z,4.00
2023-02-18T19:03:21.920Z,4.10
2023-02-18T19:05:52.537Z,3.90
2023-02-18T19:08:20.881Z,4.37
2023-02-18T19:10:51.001Z,3.93
2023-02-18T19:13:26.791Z,5.10
2023-02-18T19:16:07.256Z,4.43
2023-02-18T19:18:36.962Z,4.60
2023-02-18T19:21:06.818Z,4.63
2023-02-18T19:23:36.537Z,3.90
2023-02-18T19:26:04.822Z,5.20
2023-02-18T19:28:33.016Z,4.27
2023-02-18T19:31:03.179Z,5.00
2023-02-18T19:33:31.531Z,4.30
2023-02-18T19:36:00.913Z,4.53
2023-02-18T19:38:29.277Z,4.87
2023-02-18T19:41:06.716Z,4.23
2023-02-18T19:43:35.015Z,5.57
2023-02-18T19:46:09.678Z,4.27
2023-02-18T19:48:38.013Z,4.60
2023-02-18T19:51:09.713Z,4.87
2023-02-18T19:53:38.124Z,4.47
2023-02-18T19:56:08.070Z,4.67
2023-02-18T19:58:36.464Z,4.67
2023-02-18T20:01:05.082Z,4.33
2023-02-18T20:03:33.177Z,5.03
2023-02-18T20:06:01.126Z,4.27
2023-02-18T20:08:31.157Z,4.60
2023-02-18T20:10:59.824Z,4.73
2023-02-18T20:13:28.130Z,4.93
2023-02-18T20:15:56.294Z,4.53
2023-02-18T20:18:24.442Z,4.10
2023-02-18T20:20:52.722Z,4.40
2023-02-18T20:23:20.740Z,4.50
2023-02-18T20:25:50.101Z,4.50
2023-02-18T20:28:18.111Z,4.43
2023-02-18T20:30:46.463Z,4.50
2023-02-18T20:33:14.491Z,4.00
2023-02-18T20:35:45.083Z,4.60
2023-02-18T20:38:13.209Z,4.60
2023-02-18T20:40:41.284Z,3.93
2023-02-18T20:43:10.515Z,4.43
2023-02-18T20:45:38.727Z,3.90
2023-02-18T20:48:06.992Z,4.10
2023-02-18T20:50:35.202Z,3.40
2023-02-18T20:53:03.126Z,4.20
2023-02-18T20:55:31.163Z,4.00
2023-02-18T20:57:59.096Z,3.90
2023-02-18T21:00:31.953Z,4.83
2023-02-18T21:02:59.943Z,4.50
2023-02-18T21:05:28.185Z,4.20
2023-02-18T21:07:56.199Z,3.50
2023-02-18T21:10:24.652Z,3.80
2023-02-18T21:12:54.664Z,4.20
2023-02-18T21:15:22.629Z,5.20
2023-02-18T21:17:52.032Z,3.77
2023-02-18T21:20:21.738Z,4.10
2023-02-18T21:22:49.675Z,3.30
2023-02-18T21:25:17.765Z,4.30
2023-02-18T21:27:45.631Z,3.70
2023-02-18T21:30:18.297Z,3.77
2023-02-18T21:32:46.483Z,4.03
2023-02-18T21:35:18.869Z,3.97
2023-02-18T21:37:47.144Z,3.90
2023-02-18T21:40:15.124Z,3.50
2023-02-18T21:42:43.172Z,3.57
2023-02-18T21:45:16.882Z,5.40
2023-02-18T21:47:45.197Z,4.20
2023-02-18T21:50:15.724Z,4.43
2023-02-18T21:52:45.132Z,3.80
2023-02-18T21:55:14.293Z,4.90
2023-02-18T21:57:42.233Z,5.30
2023-02-18T22:00:19.917Z,3.87
2023-02-18T22:02:48.553Z,4.93
2023-02-18T22:05:16.727Z,3.90
2023-02-18T22:07:51.520Z,4.93
2023-02-18T22:10:22.809Z,4.10
2023-02-18T22:12:51.300Z,5.27
2023-02-18T22:15:19.820Z,4.00
2023-02-18T22:17:47.884Z,3.97
2023-02-18T22:20:24.919Z,3.90
2023-02-18T22:22:55.966Z,4.33
2023-02-18T22:25:24.113Z,4.60
2023-02-18T22:27:52.247Z,4.13
2023-02-18T22:30:20.934Z,4.50
2023-02-18T22:32:49.015Z,4.47
2023-02-18T22:35:17.145Z,4.90
2023-02-18T22:37:47.052Z,4.47
2023-02-18T22:40:16.708Z,4.80
2023-02-18T22:42:44.692Z,5.07
2023-02-18T22:45:19.670Z,4.23
2023-02-18T22:47:48.245Z,4.67
2023-02-18T22:50:19.792Z,5.27
2023-02-18T22:52:51.609Z,3.77
2023-02-18T22:55:23.712Z,4.70
2023-02-18T22:57:55.272Z,4.50
2023-02-18T23:00:31.545Z,4.73
2023-02-18T23:02:59.602Z,4.90
2023-02-18T23:05:27.646Z,4.13
2023-02-18T23:07:56.940Z,3.90
2023-02-18T23:10:26.892Z,4.70
2023-02-18T23:12:55.423Z,5.23
2023-02-18T23:15:26.164Z,4.43
2023-02-18T23:17:54.211Z,4.73
2023-02-18T23:20:42.165Z,5.40
2023-02-18T23:23:10.184Z,4.57
2023-02-18T23:25:42.604Z,4.50
2023-02-18T23:28:11.455Z,4.40
2023-02-18T23:30:39.643Z,3.70
2023-02-18T23:33:08.029Z,4.70
2023-02-18T23:35:36.044Z,4.73
2023-02-18T23:38:06.827Z,4.73
2023-02-18T23:40:35.552Z,4.10
2023-02-18T23:43:05.107Z,4.43
2023-02-18T23:45:33.127Z,4.30
2023-02-18T23:48:01.475Z,4.77
2023-02-18T23:50:29.521Z,4.03
2023-02-18T23:52:57.550Z,4.20
2023-02-18T23:55:25.531Z,3.93
2023-02-18T23:57:53.594Z,4.40
